sensor_id;sensor_type;location;lat;lon;timestamp;P1;durP1;ratioP1;P2;durP2;ratioP2
62362;SDS011;48396;48.426;1.500;2023-06-24T00:00:55;6.82;;;3.75;;
62362;SDS011;48396;48.426;1.500;2023-06-24T00:03:21;7.65;;;3.65;;
62362;SDS011;48396;48.426;1.500;2023-06-24T00:05:47;5.32;;;3.63;;
62362;SDS011;48396;48.426;1.500;2023-06-24T00:08:14;7.38;;;3.92;;
62362;SDS011;48396;48.426;1.500;2023-06-24T00:10:42;6.55;;;3.55;;
62362;SDS011;48396;48.426;1.500;2023-06-24T00:13:08;6.95;;;3.35;;
62362;SDS011;48396;48.426;1.500;2023-06-24T00:15:34;6.38;;;4.00;;
62362;SDS011;48396;48.426;1.500;2023-06-24T00:17:59;7.55;;;4.07;;
62362;SDS011;48396;48.426;1.500;2023-06-24T00:20:30;5.93;;;3.72;;
62362;SDS011;48396;48.426;1.500;2023-06-24T00:22:56;7.38;;;3.72;;
62362;SDS011;48396;48.426;1.500;2023-06-24T00:25:22;7.32;;;3.70;;
62362;SDS011;48396;48.426;1.500;2023-06-24T00:27:47;5.55;;;3.55;;
62362;SDS011;48396;48.426;1.500;2023-06-24T00:30:13;6.55;;;3.80;;
62362;SDS011;48396;48.426;1.500;2023-06-24T00:32:38;8.15;;;3.95;;
62362;SDS011;48396;48.426;1.500;2023-06-24T00:35:05;6.55;;;3.60;;
62362;SDS011;48396;48.426;1.500;2023-06-24T00:37:31;7.03;;;3.55;;
62362;SDS011;48396;48.426;1.500;2023-06-24T00:39:56;5.53;;;3.63;;
62362;SDS011;48396;48.426;1.500;2023-06-24T00:42:22;5.93;;;3.80;;
62362;SDS011;48396;48.426;1.500;2023-06-24T00:44:48;5.50;;;3.30;;
62362;SDS011;48396;48.426;1.500;2023-06-24T00:47:13;6.68;;;3.70;;
62362;SDS011;48396;48.426;1.500;2023-06-24T00:49:39;6.47;;;3.67;;
62362;SDS011;48396;48.426;1.500;2023-06-24T00:52:04;6.63;;;3.50;;
62362;SDS011;48396;48.426;1.500;2023-06-24T00:54:30;6.15;;;3.40;;
62362;SDS011;48396;48.426;1.500;2023-06-24T00:56:57;6.90;;;3.60;;
62362;SDS011;48396;48.426;1.500;2023-06-24T00:59:25;5.72;;;3.72;;
62362;SDS011;48396;48.426;1.500;2023-06-24T01:01:54;6.18;;;3.40;;
62362;SDS011;48396;48.426;1.500;2023-06-24T01:04:20;5.38;;;3.33;;
62362;SDS011;48396;48.426;1.500;2023-06-24T01:06:46;7.93;;;3.72;;
62362;SDS011;48396;48.426;1.500;2023-06-24T01:09:12;7.07;;;3.63;;
62362;SDS011;48396;48.426;1.500;2023-06-24T01:11:38;6.47;;;3.55;;
62362;SDS011;48396;48.426;1.500;2023-06-24T01:14:04;6.07;;;3.70;;
62362;SDS011;48396;48.426;1.500;2023-06-24T01:33:50;6.97;;;3.90;;
62362;SDS011;48396;48.426;1.500;2023-06-24T01:36:25;6.30;;;3.92;;
62362;SDS011;48396;48.426;1.500;2023-06-24T01:39:02;6.38;;;3.83;;
62362;SDS011;48396;48.426;1.500;2023-06-24T01:41:31;5.40;;;3.42;;
62362;SDS011;48396;48.426;1.500;2023-06-24T01:43:59;6.75;;;3.60;;
62362;SDS011;48396;48.426;1.500;2023-06-24T01:46:26;5.22;;;3.63;;
62362;SDS011;48396;48.426;1.500;2023-06-24T01:48:55;5.22;;;3.38;;
62362;SDS011;48396;48.426;1.500;2023-06-24T01:51:24;6.97;;;3.72;;
62362;SDS011;48396;48.426;1.500;2023-06-24T01:53:52;6.22;;;3.53;;
62362;SDS011;48396;48.426;1.500;2023-06-24T01:58:50;4.63;;;3.22;;
62362;SDS011;48396;48.426;1.500;2023-06-24T02:01:18;5.28;;;3.22;;
62362;SDS011;48396;48.426;1.500;2023-06-24T02:03:44;5.35;;;3.50;;
62362;SDS011;48396;48.426;1.500;2023-06-24T02:06:11;6.43;;;3.70;;
62362;SDS011;48396;48.426;1.500;2023-06-24T02:08:39;7.10;;;3.58;;
62362;SDS011;48396;48.426;1.500;2023-06-24T02:11:06;7.32;;;3.95;;
62362;SDS011;48396;48.426;1.500;2023-06-24T02:13:33;5.63;;;3.40;;
62362;SDS011;48396;48.426;1.500;2023-06-24T02:16:01;5.95;;;3.67;;
62362;SDS011;48396;48.426;1.500;2023-06-24T02:18:28;6.35;;;3.83;;
62362;SDS011;48396;48.426;1.500;2023-06-24T02:21:12;7.68;;;3.58;;
62362;SDS011;48396;48.426;1.500;2023-06-24T02:23:40;6.57;;;3.65;;
62362;SDS011;48396;48.426;1.500;2023-06-24T02:26:07;6.72;;;3.97;;
62362;SDS011;48396;48.426;1.500;2023-06-24T02:28:33;6.32;;;3.60;;
62362;SDS011;48396;48.426;1.500;2023-06-24T02:31:00;6.88;;;3.55;;
62362;SDS011;48396;48.426;1.500;2023-06-24T02:33:26;6.13;;;3.85;;
62362;SDS011;48396;48.426;1.500;2023-06-24T02:35:52;6.53;;;3.75;;
62362;SDS011;48396;48.426;1.500;2023-06-24T02:38:18;8.52;;;4.13;;
62362;SDS011;48396;48.426;1.500;2023-06-24T02:40:45;6.32;;;3.50;;
62362;SDS011;48396;48.426;1.500;2023-06-24T02:43:11;5.22;;;3.30;;
62362;SDS011;48396;48.426;1.500;2023-06-24T02:45:37;6.85;;;3.58;;
62362;SDS011;48396;48.426;1.500;2023-06-24T02:48:04;7.30;;;3.80;;
62362;SDS011;48396;48.426;1.500;2023-06-24T02:50:30;5.57;;;3.33;;
62362;SDS011;48396;48.426;1.500;2023-06-24T02:52:57;7.40;;;3.55;;
62362;SDS011;48396;48.426;1.500;2023-06-24T02:55:24;6.45;;;3.70;;
62362;SDS011;48396;48.426;1.500;2023-06-24T02:57:50;6.70;;;3.72;;
62362;SDS011;48396;48.426;1.500;2023-06-24T03:00:16;8.70;;;3.72;;
62362;SDS011;48396;48.426;1.500;2023-06-24T03:02:43;7.45;;;3.90;;
62362;SDS011;48396;48.426;1.500;2023-06-24T03:05:10;8.25;;;3.42;;
62362;SDS011;48396;48.426;1.500;2023-06-24T03:07:36;7.40;;;3.90;;
62362;SDS011;48396;48.426;1.500;2023-06-24T03:10:03;7.43;;;3.78;;
62362;SDS011;48396;48.426;1.500;2023-06-24T03:12:30;4.60;;;3.42;;
62362;SDS011;48396;48.426;1.500;2023-06-24T03:14:57;4.90;;;3.30;;
62362;SDS011;48396;48.426;1.500;2023-06-24T03:17:22;6.07;;;3.70;;
62362;SDS011;48396;48.426;1.500;2023-06-24T03:19:49;5.18;;;3.58;;
62362;SDS011;48396;48.426;1.500;2023-06-24T03:22:15;5.78;;;3.67;;
62362;SDS011;48396;48.426;1.500;2023-06-24T03:24:42;6.70;;;3.45;;
62362;SDS011;48396;48.426;1.500;2023-06-24T03:27:07;5.97;;;3.60;;
62362;SDS011;48396;48.426;1.500;2023-06-24T03:29:33;7.85;;;4.05;;
62362;SDS011;48396;48.426;1.500;2023-06-24T03:31:59;6.72;;;3.95;;
62362;SDS011;48396;48.426;1.500;2023-06-24T03:34:24;6.63;;;3.55;;
62362;SDS011;48396;48.426;1.500;2023-06-24T03:36:52;5.32;;;3.60;;
62362;SDS011;48396;48.426;1.500;2023-06-24T03:39:19;5.25;;;3.53;;
62362;SDS011;48396;48.426;1.500;2023-06-24T03:41:45;7.95;;;3.95;;
62362;SDS011;48396;48.426;1.500;2023-06-24T03:44:11;7.07;;;3.88;;
62362;SDS011;48396;48.426;1.500;2023-06-24T03:46:36;6.07;;;3.85;;
62362;SDS011;48396;48.426;1.500;2023-06-24T03:49:02;6.70;;;3.70;;
62362;SDS011;48396;48.426;1.500;2023-06-24T03:51:28;7.25;;;3.70;;
62362;SDS011;48396;48.426;1.500;2023-06-24T03:53:53;8.38;;;4.05;;
62362;SDS011;48396;48.426;1.500;2023-06-24T03:56:19;6.30;;;3.70;;
62362;SDS011;48396;48.426;1.500;2023-06-24T03:58:44;6.93;;;3.70;;
62362;SDS011;48396;48.426;1.500;2023-06-24T04:01:10;6.03;;;3.63;;
62362;SDS011;48396;48.426;1.500;2023-06-24T04:03:36;6.80;;;3.97;;
62362;SDS011;48396;48.426;1.500;2023-06-24T04:06:01;6.28;;;4.15;;
62362;SDS011;48396;48.426;1.500;2023-06-24T04:08:27;5.63;;;3.60;;
62362;SDS011;48396;48.426;1.500;2023-06-24T04:10:56;6.25;;;3.55;;
62362;SDS011;48396;48.426;1.500;2023-06-24T04:13:22;7.35;;;3.78;;
62362;SDS011;48396;48.426;1.500;2023-06-24T04:15:47;7.45;;;3.60;;
62362;SDS011;48396;48.426;1.500;2023-06-24T04:18:13;7.28;;;3.70;;
62362;SDS011;48396;48.426;1.500;2023-06-24T04:20:39;7.35;;;3.58;;
62362;SDS011;48396;48.426;1.500;2023-06-24T04:23:05;8.85;;;3.75;;
62362;SDS011;48396;48.426;1.500;2023-06-24T04:25:35;4.80;;;3.17;;
62362;SDS011;48396;48.426;1.500;2023-06-24T04:28:02;8.25;;;3.90;;
62362;SDS011;48396;48.426;1.500;2023-06-24T04:30:29;5.97;;;3.33;;
62362;SDS011;48396;48.426;1.500;2023-06-24T04:32:55;5.55;;;3.40;;
62362;SDS011;48396;48.426;1.500;2023-06-24T04:35:39;5.28;;;3.20;;
62362;SDS011;48396;48.426;1.500;2023-06-24T04:38:04;5.38;;;3.60;;
62362;SDS011;48396;48.426;1.500;2023-06-24T04:40:30;6.75;;;3.42;;
62362;SDS011;48396;48.426;1.500;2023-06-24T04:42:56;6.07;;;3.90;;
62362;SDS011;48396;48.426;1.500;2023-06-24T04:45:21;5.70;;;3.38;;
62362;SDS011;48396;48.426;1.500;2023-06-24T04:47:47;7.25;;;3.50;;
62362;SDS011;48396;48.426;1.500;2023-06-24T04:50:13;5.18;;;3.40;;
62362;SDS011;48396;48.426;1.500;2023-06-24T04:52:39;6.55;;;3.95;;
62362;SDS011;48396;48.426;1.500;2023-06-24T04:55:04;7.28;;;3.40;;
62362;SDS011;48396;48.426;1.500;2023-06-24T04:57:31;7.78;;;3.97;;
62362;SDS011;48396;48.426;1.500;2023-06-24T04:59:57;5.88;;;3.53;;
62362;SDS011;48396;48.426;1.500;2023-06-24T05:02:23;6.47;;;3.58;;
62362;SDS011;48396;48.426;1.500;2023-06-24T05:04:49;6.93;;;3.63;;
62362;SDS011;48396;48.426;1.500;2023-06-24T05:07:16;8.02;;;3.67;;
62362;SDS011;48396;48.426;1.500;2023-06-24T05:09:42;5.68;;;3.28;;
62362;SDS011;48396;48.426;1.500;2023-06-24T05:12:08;6.30;;;3.35;;
62362;SDS011;48396;48.426;1.500;2023-06-24T05:14:35;5.03;;;3.10;;
62362;SDS011;48396;48.426;1.500;2023-06-24T05:17:01;4.80;;;3.30;;
62362;SDS011;48396;48.426;1.500;2023-06-24T05:19:27;4.53;;;3.08;;
62362;SDS011;48396;48.426;1.500;2023-06-24T05:21:53;7.13;;;3.83;;
62362;SDS011;48396;48.426;1.500;2023-06-24T05:24:18;5.80;;;3.72;;
62362;SDS011;48396;48.426;1.500;2023-06-24T05:26:44;6.85;;;3.65;;
62362;SDS011;48396;48.426;1.500;2023-06-24T05:29:13;4.57;;;3.20;;
62362;SDS011;48396;48.426;1.500;2023-06-24T05:31:40;6.15;;;3.35;;
62362;SDS011;48396;48.426;1.500;2023-06-24T05:34:06;6.18;;;3.42;;
62362;SDS011;48396;48.426;1.500;2023-06-24T05:36:31;5.72;;;3.20;;
62362;SDS011;48396;48.426;1.500;2023-06-24T05:38:57;7.47;;;3.80;;
62362;SDS011;48396;48.426;1.500;2023-06-24T05:41:22;7.18;;;3.28;;
62362;SDS011;48396;48.426;1.500;2023-06-24T05:43:48;6.25;;;3.92;;
62362;SDS011;48396;48.426;1.500;2023-06-24T05:46:13;7.32;;;3.55;;
62362;SDS011;48396;48.426;1.500;2023-06-24T05:48:39;6.80;;;3.67;;
62362;SDS011;48396;48.426;1.500;2023-06-24T05:51:07;6.82;;;3.60;;
62362;SDS011;48396;48.426;1.500;2023-06-24T05:53:33;6.22;;;3.22;;
62362;SDS011;48396;48.426;1.500;2023-06-24T05:55:59;5.88;;;3.85;;
62362;SDS011;48396;48.426;1.500;2023-06-24T05:58:24;5.93;;;3.50;;
62362;SDS011;48396;48.426;1.500;2023-06-24T06:03:35;7.93;;;3.40;;
62362;SDS011;48396;48.426;1.500;2023-06-24T06:06:01;6.95;;;3.45;;
62362;SDS011;48396;48.426;1.500;2023-06-24T06:08:26;8.25;;;3.60;;
62362;SDS011;48396;48.426;1.500;2023-06-24T06:10:52;6.32;;;3.13;;
62362;SDS011;48396;48.426;1.500;2023-06-24T06:13:17;4.05;;;2.78;;
62362;SDS011;48396;48.426;1.500;2023-06-24T06:15:43;6.30;;;3.40;;
62362;SDS011;48396;48.426;1.500;2023-06-24T06:18:09;5.47;;;3.42;;
62362;SDS011;48396;48.426;1.500;2023-06-24T06:20:35;4.55;;;3.30;;
62362;SDS011;48396;48.426;1.500;2023-06-24T06:23:00;5.28;;;2.95;;
62362;SDS011;48396;48.426;1.500;2023-06-24T06:25:26;7.97;;;3.33;;
62362;SDS011;48396;48.426;1.500;2023-06-24T06:27:51;5.03;;;3.15;;
62362;SDS011;48396;48.426;1.500;2023-06-24T06:30:17;4.97;;;3.25;;
62362;SDS011;48396;48.426;1.500;2023-06-24T06:32:43;6.65;;;3.53;;
62362;SDS011;48396;48.426;1.500;2023-06-24T06:35:08;4.68;;;3.17;;
62362;SDS011;48396;48.426;1.500;2023-06-24T06:37:34;4.60;;;3.15;;
62362;SDS011;48396;48.426;1.500;2023-06-24T06:39:59;4.70;;;3.03;;
62362;SDS011;48396;48.426;1.500;2023-06-24T06:42:25;4.65;;;2.97;;
62362;SDS011;48396;48.426;1.500;2023-06-24T06:44:51;4.82;;;2.92;;
62362;SDS011;48396;48.426;1.500;2023-06-24T06:47:16;6.15;;;2.95;;
62362;SDS011;48396;48.426;1.500;2023-06-24T06:49:42;4.93;;;3.10;;
62362;SDS011;48396;48.426;1.500;2023-06-24T06:52:08;5.85;;;3.45;;
62362;SDS011;48396;48.426;1.500;2023-06-24T06:54:33;5.10;;;3.30;;
62362;SDS011;48396;48.426;1.500;2023-06-24T06:57:02;5.63;;;3.10;;
62362;SDS011;48396;48.426;1.500;2023-06-24T06:59:29;5.03;;;2.88;;
62362;SDS011;48396;48.426;1.500;2023-06-24T07:01:55;7.15;;;3.40;;
62362;SDS011;48396;48.426;1.500;2023-06-24T07:07:05;5.97;;;3.05;;
62362;SDS011;48396;48.426;1.500;2023-06-24T07:09:31;6.93;;;3.10;;
62362;SDS011;48396;48.426;1.500;2023-06-24T07:11:56;6.97;;;3.65;;
62362;SDS011;48396;48.426;1.500;2023-06-24T07:14:22;4.50;;;3.00;;
62362;SDS011;48396;48.426;1.500;2023-06-24T07:16:47;5.03;;;3.15;;
62362;SDS011;48396;48.426;1.500;2023-06-24T07:19:13;4.57;;;3.00;;
62362;SDS011;48396;48.426;1.500;2023-06-24T07:21:38;5.20;;;2.95;;
62362;SDS011;48396;48.426;1.500;2023-06-24T07:24:04;4.35;;;2.78;;
62362;SDS011;48396;48.426;1.500;2023-06-24T07:26:30;4.45;;;2.80;;
62362;SDS011;48396;48.426;1.500;2023-06-24T07:28:59;5.13;;;3.08;;
62362;SDS011;48396;48.426;1.500;2023-06-24T07:31:24;5.25;;;2.90;;
62362;SDS011;48396;48.426;1.500;2023-06-24T07:33:50;4.85;;;2.75;;
62362;SDS011;48396;48.426;1.500;2023-06-24T07:36:16;6.45;;;3.13;;
62362;SDS011;48396;48.426;1.500;2023-06-24T07:38:41;4.25;;;2.70;;
62362;SDS011;48396;48.426;1.500;2023-06-24T07:41:07;4.47;;;2.85;;
62362;SDS011;48396;48.426;1.500;2023-06-24T07:43:33;3.38;;;2.78;;
62362;SDS011;48396;48.426;1.500;2023-06-24T07:45:58;3.42;;;2.60;;
62362;SDS011;48396;48.426;1.500;2023-06-24T07:48:24;5.28;;;3.03;;
62362;SDS011;48396;48.426;1.500;2023-06-24T07:50:50;4.45;;;3.00;;
62362;SDS011;48396;48.426;1.500;2023-06-24T07:53:15;4.65;;;3.00;;
62362;SDS011;48396;48.426;1.500;2023-06-24T07:55:41;4.43;;;2.92;;
62362;SDS011;48396;48.426;1.500;2023-06-24T07:58:25;3.88;;;2.63;;
62362;SDS011;48396;48.426;1.500;2023-06-24T08:00:51;4.53;;;2.90;;
62362;SDS011;48396;48.426;1.500;2023-06-24T08:03:16;5.32;;;3.15;;
62362;SDS011;48396;48.426;1.500;2023-06-24T08:05:42;5.00;;;3.10;;
62362;SDS011;48396;48.426;1.500;2023-06-24T08:08:08;4.68;;;3.08;;
62362;SDS011;48396;48.426;1.500;2023-06-24T08:10:34;3.72;;;2.70;;
62362;SDS011;48396;48.426;1.500;2023-06-24T08:13:18;5.07;;;3.10;;
62362;SDS011;48396;48.426;1.500;2023-06-24T08:16:03;6.18;;;3.35;;
62362;SDS011;48396;48.426;1.500;2023-06-24T08:18:28;3.95;;;2.85;;
62362;SDS011;48396;48.426;1.500;2023-06-24T08:20:54;5.55;;;2.80;;
62362;SDS011;48396;48.426;1.500;2023-06-24T08:23:20;4.63;;;3.10;;
62362;SDS011;48396;48.426;1.500;2023-06-24T08:25:45;4.38;;;3.30;;
62362;SDS011;48396;48.426;1.500;2023-06-24T08:28:11;4.68;;;3.10;;
62362;SDS011;48396;48.426;1.500;2023-06-24T08:30:36;5.40;;;3.13;;
62362;SDS011;48396;48.426;1.500;2023-06-24T08:33:02;4.20;;;3.10;;
62362;SDS011;48396;48.426;1.500;2023-06-24T08:35:28;7.13;;;2.70;;
62362;SDS011;48396;48.426;1.500;2023-06-24T08:37:53;3.63;;;2.55;;
62362;SDS011;48396;48.426;1.500;2023-06-24T08:40:19;6.22;;;3.05;;
62362;SDS011;48396;48.426;1.500;2023-06-24T08:42:44;3.20;;;2.70;;
62362;SDS011;48396;48.426;1.500;2023-06-24T08:45:10;4.07;;;2.75;;
62362;SDS011;48396;48.426;1.500;2023-06-24T08:47:36;5.70;;;2.60;;
62362;SDS011;48396;48.426;1.500;2023-06-24T08:50:03;3.85;;;2.67;;
62362;SDS011;48396;48.426;1.500;2023-06-24T08:52:32;3.70;;;2.80;;
62362;SDS011;48396;48.426;1.500;2023-06-24T08:55:01;3.97;;;2.75;;
62362;SDS011;48396;48.426;1.500;2023-06-24T08:57:27;4.57;;;3.20;;
62362;SDS011;48396;48.426;1.500;2023-06-24T08:59:53;4.88;;;3.30;;
62362;SDS011;48396;48.426;1.500;2023-06-24T09:02:19;3.92;;;2.80;;
62362;SDS011;48396;48.426;1.500;2023-06-24T09:04:44;5.35;;;2.80;;
62362;SDS011;48396;48.426;1.500;2023-06-24T09:07:10;5.72;;;3.10;;
62362;SDS011;48396;48.426;1.500;2023-06-24T09:09:43;4.93;;;3.00;;
62362;SDS011;48396;48.426;1.500;2023-06-24T09:12:13;5.18;;;2.95;;
62362;SDS011;48396;48.426;1.500;2023-06-24T09:14:39;5.22;;;3.22;;
62362;SDS011;48396;48.426;1.500;2023-06-24T09:17:05;3.92;;;2.80;;
62362;SDS011;48396;48.426;1.500;2023-06-24T09:19:34;4.63;;;2.88;;
62362;SDS011;48396;48.426;1.500;2023-06-24T09:22:07;4.70;;;2.88;;
62362;SDS011;48396;48.426;1.500;2023-06-24T09:24:41;5.53;;;2.85;;
62362;SDS011;48396;48.426;1.500;2023-06-24T09:27:07;5.07;;;3.08;;
62362;SDS011;48396;48.426;1.500;2023-06-24T09:29:33;3.67;;;3.00;;
62362;SDS011;48396;48.426;1.500;2023-06-24T09:32:03;5.78;;;3.13;;
62362;SDS011;48396;48.426;1.500;2023-06-24T09:34:30;4.32;;;2.72;;
62362;SDS011;48396;48.426;1.500;2023-06-24T09:36:57;5.93;;;2.90;;
62362;SDS011;48396;48.426;1.500;2023-06-24T09:39:42;3.95;;;2.95;;
62362;SDS011;48396;48.426;1.500;2023-06-24T09:42:10;4.20;;;3.05;;
62362;SDS011;48396;48.426;1.500;2023-06-24T09:44:55;5.03;;;3.15;;
62362;SDS011;48396;48.426;1.500;2023-06-24T09:47:20;6.50;;;2.90;;
62362;SDS011;48396;48.426;1.500;2023-06-24T09:49:50;3.72;;;2.67;;
62362;SDS011;48396;48.426;1.500;2023-06-24T09:55:03;7.47;;;3.65;;
62362;SDS011;48396;48.426;1.500;2023-06-24T09:57:30;7.03;;;3.70;;
62362;SDS011;48396;48.426;1.500;2023-06-24T10:00:18;6.47;;;3.25;;
62362;SDS011;48396;48.426;1.500;2023-06-24T10:02:44;6.30;;;3.00;;
62362;SDS011;48396;48.426;1.500;2023-06-24T10:05:14;5.35;;;2.85;;
62362;SDS011;48396;48.426;1.500;2023-06-24T10:07:40;5.45;;;3.10;;
62362;SDS011;48396;48.426;1.500;2023-06-24T10:10:07;6.18;;;3.38;;
62362;SDS011;48396;48.426;1.500;2023-06-24T10:12:34;7.00;;;3.30;;
62362;SDS011;48396;48.426;1.500;2023-06-24T10:15:00;6.25;;;3.38;;
62362;SDS011;48396;48.426;1.500;2023-06-24T10:17:27;6.30;;;3.10;;
62362;SDS011;48396;48.426;1.500;2023-06-24T10:19:53;4.57;;;3.30;;
62362;SDS011;48396;48.426;1.500;2023-06-24T10:22:22;4.63;;;3.10;;
62362;SDS011;48396;48.426;1.500;2023-06-24T10:24:51;4.97;;;3.30;;
62362;SDS011;48396;48.426;1.500;2023-06-24T10:27:18;5.40;;;3.30;;
62362;SDS011;48396;48.426;1.500;2023-06-24T10:29:49;6.53;;;3.30;;
62362;SDS011;48396;48.426;1.500;2023-06-24T10:32:21;7.43;;;3.58;;
62362;SDS011;48396;48.426;1.500;2023-06-24T10:34:53;6.57;;;3.67;;
62362;SDS011;48396;48.426;1.500;2023-06-24T10:37:21;8.27;;;3.20;;
62362;SDS011;48396;48.426;1.500;2023-06-24T10:39:54;4.13;;;2.90;;
62362;SDS011;48396;48.426;1.500;2023-06-24T10:45:07;4.10;;;3.00;;
62362;SDS011;48396;48.426;1.500;2023-06-24T10:47:40;4.05;;;2.75;;
62362;SDS011;48396;48.426;1.500;2023-06-24T10:50:25;6.65;;;3.20;;
62362;SDS011;48396;48.426;1.500;2023-06-24T10:52:52;5.90;;;3.13;;
62362;SDS011;48396;48.426;1.500;2023-06-24T10:55:24;6.07;;;2.92;;
62362;SDS011;48396;48.426;1.500;2023-06-24T10:57:51;5.20;;;3.33;;
62362;SDS011;48396;48.426;1.500;2023-06-24T11:00:16;4.20;;;3.10;;
62362;SDS011;48396;48.426;1.500;2023-06-24T11:02:43;3.70;;;2.70;;
62362;SDS011;48396;48.426;1.500;2023-06-24T11:05:09;4.82;;;2.90;;
62362;SDS011;48396;48.426;1.500;2023-06-24T11:07:35;4.35;;;2.90;;
62362;SDS011;48396;48.426;1.500;2023-06-24T11:12:55;4.28;;;2.83;;
62362;SDS011;48396;48.426;1.500;2023-06-24T11:15:22;3.55;;;2.50;;
62362;SDS011;48396;48.426;1.500;2023-06-24T11:17:54;4.10;;;2.90;;
62362;SDS011;48396;48.426;1.500;2023-06-24T11:20:19;4.40;;;2.78;;
62362;SDS011;48396;48.426;1.500;2023-06-24T11:22:45;4.20;;;2.60;;
62362;SDS011;48396;48.426;1.500;2023-06-24T11:25:14;5.95;;;3.00;;
62362;SDS011;48396;48.426;1.500;2023-06-24T11:27:44;4.88;;;3.00;;
62362;SDS011;48396;48.426;1.500;2023-06-24T11:30:10;3.95;;;2.83;;
62362;SDS011;48396;48.426;1.500;2023-06-24T11:32:37;4.07;;;2.70;;
62362;SDS011;48396;48.426;1.500;2023-06-24T11:35:04;4.60;;;3.00;;
62362;SDS011;48396;48.426;1.500;2023-06-24T11:37:31;5.43;;;3.13;;
62362;SDS011;48396;48.426;1.500;2023-06-24T11:40:04;4.22;;;2.65;;
62362;SDS011;48396;48.426;1.500;2023-06-24T11:42:37;4.35;;;2.83;;
62362;SDS011;48396;48.426;1.500;2023-06-24T11:45:05;4.30;;;2.90;;
62362;SDS011;48396;48.426;1.500;2023-06-24T11:47:32;5.47;;;3.38;;
62362;SDS011;48396;48.426;1.500;2023-06-24T11:49:59;4.35;;;3.00;;
62362;SDS011;48396;48.426;1.500;2023-06-24T11:58:02;5.40;;;3.10;;
62362;SDS011;48396;48.426;1.500;2023-06-24T12:00:35;4.57;;;3.00;;
62362;SDS011;48396;48.426;1.500;2023-06-24T12:03:06;5.60;;;3.15;;
62362;SDS011;48396;48.426;1.500;2023-06-24T12:05:33;4.72;;;3.20;;
62362;SDS011;48396;48.426;1.500;2023-06-24T12:10:28;4.65;;;2.97;;
62362;SDS011;48396;48.426;1.500;2023-06-24T12:12:55;3.70;;;2.70;;
62362;SDS011;48396;48.426;1.500;2023-06-24T12:15:22;5.70;;;2.67;;
62362;SDS011;48396;48.426;1.500;2023-06-24T12:17:48;4.03;;;2.95;;
62362;SDS011;48396;48.426;1.500;2023-06-24T12:20:14;4.10;;;2.65;;
62362;SDS011;48396;48.426;1.500;2023-06-24T12:22:41;4.95;;;3.28;;
62362;SDS011;48396;48.426;1.500;2023-06-24T12:25:07;3.90;;;2.60;;
62362;SDS011;48396;48.426;1.500;2023-06-24T12:27:33;4.45;;;2.95;;
62362;SDS011;48396;48.426;1.500;2023-06-24T12:29:59;3.63;;;2.70;;
62362;SDS011;48396;48.426;1.500;2023-06-24T12:32:25;4.05;;;2.78;;
62362;SDS011;48396;48.426;1.500;2023-06-24T12:34:51;3.80;;;3.00;;
62362;SDS011;48396;48.426;1.500;2023-06-24T12:37:17;3.28;;;2.67;;
62362;SDS011;48396;48.426;1.500;2023-06-24T12:39:43;3.78;;;2.55;;
62362;SDS011;48396;48.426;1.500;2023-06-24T12:42:09;3.85;;;2.78;;
62362;SDS011;48396;48.426;1.500;2023-06-24T12:44:35;5.40;;;3.10;;
62362;SDS011;48396;48.426;1.500;2023-06-24T12:47:00;3.70;;;3.03;;
62362;SDS011;48396;48.426;1.500;2023-06-24T12:49:26;4.05;;;2.75;;
62362;SDS011;48396;48.426;1.500;2023-06-24T12:51:51;3.83;;;2.88;;
62362;SDS011;48396;48.426;1.500;2023-06-24T12:54:17;4.20;;;3.10;;
62362;SDS011;48396;48.426;1.500;2023-06-24T12:56:43;4.65;;;2.97;;
62362;SDS011;48396;48.426;1.500;2023-06-24T12:59:08;5.03;;;2.75;;
62362;SDS011;48396;48.426;1.500;2023-06-24T13:01:34;4.40;;;2.72;;
62362;SDS011;48396;48.426;1.500;2023-06-24T13:03:59;4.45;;;2.85;;
62362;SDS011;48396;48.426;1.500;2023-06-24T13:06:25;4.93;;;3.05;;
62362;SDS011;48396;48.426;1.500;2023-06-24T13:08:51;4.22;;;2.67;;
62362;SDS011;48396;48.426;1.500;2023-06-24T13:11:16;4.95;;;3.17;;
62362;SDS011;48396;48.426;1.500;2023-06-24T13:13:42;3.92;;;2.90;;
62362;SDS011;48396;48.426;1.500;2023-06-24T13:16:08;5.45;;;3.10;;
62362;SDS011;48396;48.426;1.500;2023-06-24T13:18:33;5.25;;;2.88;;
62362;SDS011;48396;48.426;1.500;2023-06-24T13:20:59;4.53;;;3.17;;
62362;SDS011;48396;48.426;1.500;2023-06-24T13:23:24;4.25;;;3.20;;
62362;SDS011;48396;48.426;1.500;2023-06-24T13:25:50;4.93;;;3.40;;
62362;SDS011;48396;48.426;1.500;2023-06-24T13:28:15;4.07;;;2.85;;
62362;SDS011;48396;48.426;1.500;2023-06-24T13:30:41;6.10;;;3.45;;
62362;SDS011;48396;48.426;1.500;2023-06-24T13:33:07;4.80;;;3.13;;
62362;SDS011;48396;48.426;1.500;2023-06-24T13:35:33;4.05;;;3.00;;
62362;SDS011;48396;48.426;1.500;2023-06-24T13:37:58;4.18;;;2.70;;
62362;SDS011;48396;48.426;1.500;2023-06-24T13:40:24;6.30;;;3.30;;
62362;SDS011;48396;48.426;1.500;2023-06-24T13:42:50;4.43;;;3.10;;
62362;SDS011;48396;48.426;1.500;2023-06-24T13:45:15;5.63;;;3.15;;
62362;SDS011;48396;48.426;1.500;2023-06-24T13:47:41;6.82;;;3.60;;
62362;SDS011;48396;48.426;1.500;2023-06-24T13:50:07;6.20;;;3.45;;
62362;SDS011;48396;48.426;1.500;2023-06-24T13:52:33;5.22;;;3.22;;
62362;SDS011;48396;48.426;1.500;2023-06-24T13:54:59;7.57;;;3.55;;
62362;SDS011;48396;48.426;1.500;2023-06-24T13:57:25;5.18;;;3.22;;
62362;SDS011;48396;48.426;1.500;2023-06-24T13:59:50;5.88;;;3.35;;
62362;SDS011;48396;48.426;1.500;2023-06-24T14:02:16;4.72;;;3.25;;
62362;SDS011;48396;48.426;1.500;2023-06-24T14:04:41;6.00;;;3.40;;
62362;SDS011;48396;48.426;1.500;2023-06-24T14:07:07;5.15;;;3.30;;
62362;SDS011;48396;48.426;1.500;2023-06-24T14:09:33;5.22;;;3.40;;
62362;SDS011;48396;48.426;1.500;2023-06-24T14:11:59;6.47;;;3.13;;
62362;SDS011;48396;48.426;1.500;2023-06-24T14:14:25;4.22;;;3.17;;
62362;SDS011;48396;48.426;1.500;2023-06-24T14:16:51;4.78;;;3.15;;
62362;SDS011;48396;48.426;1.500;2023-06-24T14:19:16;4.85;;;2.92;;
62362;SDS011;48396;48.426;1.500;2023-06-24T14:21:42;6.68;;;3.63;;
62362;SDS011;48396;48.426;1.500;2023-06-24T14:24:08;5.18;;;3.28;;
62362;SDS011;48396;48.426;1.500;2023-06-24T14:26:36;6.32;;;3.47;;
62362;SDS011;48396;48.426;1.500;2023-06-24T14:29:02;5.70;;;3.47;;
62362;SDS011;48396;48.426;1.500;2023-06-24T14:31:27;4.78;;;3.03;;
62362;SDS011;48396;48.426;1.500;2023-06-24T14:33:53;4.63;;;3.30;;
62362;SDS011;48396;48.426;1.500;2023-06-24T14:36:19;5.85;;;3.35;;
62362;SDS011;48396;48.426;1.500;2023-06-24T14:38:45;4.78;;;3.00;;
62362;SDS011;48396;48.426;1.500;2023-06-24T14:41:10;5.57;;;3.28;;
62362;SDS011;48396;48.426;1.500;2023-06-24T14:43:36;4.68;;;3.20;;
62362;SDS011;48396;48.426;1.500;2023-06-24T14:46:01;6.03;;;3.47;;
62362;SDS011;48396;48.426;1.500;2023-06-24T14:48:27;4.95;;;3.35;;
62362;SDS011;48396;48.426;1.500;2023-06-24T14:50:53;7.03;;;3.60;;
62362;SDS011;48396;48.426;1.500;2023-06-24T14:53:18;4.93;;;3.15;;
62362;SDS011;48396;48.426;1.500;2023-06-24T14:55:45;4.00;;;2.90;;
62362;SDS011;48396;48.426;1.500;2023-06-24T14:58:11;4.68;;;3.30;;
62362;SDS011;48396;48.426;1.500;2023-06-24T15:00:36;4.38;;;2.97;;
62362;SDS011;48396;48.426;1.500;2023-06-24T15:03:02;4.10;;;3.15;;
62362;SDS011;48396;48.426;1.500;2023-06-24T15:05:27;4.80;;;3.00;;
62362;SDS011;48396;48.426;1.500;2023-06-24T15:08:11;5.45;;;3.53;;
62362;SDS011;48396;48.426;1.500;2023-06-24T15:10:37;4.45;;;2.95;;
62362;SDS011;48396;48.426;1.500;2023-06-24T15:13:02;7.20;;;3.70;;
62362;SDS011;48396;48.426;1.500;2023-06-24T15:15:28;6.00;;;3.60;;
62362;SDS011;48396;48.426;1.500;2023-06-24T15:17:54;5.10;;;3.33;;
62362;SDS011;48396;48.426;1.500;2023-06-24T15:20:19;4.63;;;3.00;;
62362;SDS011;48396;48.426;1.500;2023-06-24T15:22:45;5.00;;;3.30;;
62362;SDS011;48396;48.426;1.500;2023-06-24T15:25:10;5.15;;;3.40;;
62362;SDS011;48396;48.426;1.500;2023-06-24T15:27:36;6.20;;;3.70;;